sensor_id;sensor_type;location;lat;lon;timestamp;pressure;altitude;pressure_sealevel;temperature
23208;BMP180;11773;52.570;13.052;2022-09-06T00:01:43;101989.00;;;23.40
23208;BMP180;11773;52.570;13.052;2022-09-06T00:04:13;101982.00;;;23.30
23208;BMP180;11773;52.570;13.052;2022-09-06T00:06:43;101977.00;;;23.30
23208;BMP180;11773;52.570;13.052;2022-09-06T00:09:13;101986.00;;;23.30
23208;BMP180;11773;52.570;13.052;2022-09-06T00:11:42;101986.00;;;23.30
23208;BMP180;11773;52.570;13.052;2022-09-06T00:14:12;101990.00;;;23.20
23208;BMP180;11773;52.570;13.052;2022-09-06T00:16:41;101980.00;;;23.20
23208;BMP180;11773;52.570;13.052;2022-09-06T00:19:11;101978.00;;;23.20
23208;BMP180;11773;52.570;13.052;2022-09-06T00:21:40;101985.00;;;23.20
23208;BMP180;11773;52.570;13.052;2022-09-06T00:24:10;101979.00;;;23.20
23208;BMP180;11773;52.570;13.052;2022-09-06T00:26:39;101982.00;;;23.10
23208;BMP180;11773;52.570;13.052;2022-09-06T00:29:09;101991.00;;;23.10
23208;BMP180;11773;52.570;13.052;2022-09-06T00:31:38;101981.00;;;23.10
23208;BMP180;11773;52.570;13.052;2022-09-06T00:34:08;101980.00;;;23.10
23208;BMP180;11773;52.570;13.052;2022-09-06T00:36:37;101978.00;;;23.00
23208;BMP180;11773;52.570;13.052;2022-09-06T00:39:07;101992.00;;;23.00
23208;BMP180;11773;52.570;13.052;2022-09-06T00:41:36;101971.00;;;23.00
23208;BMP180;11773;52.570;13.052;2022-09-06T00:44:06;101975.00;;;23.00
23208;BMP180;11773;52.570;13.052;2022-09-06T00:46:38;101977.00;;;23.00
23208;BMP180;11773;52.570;13.052;2022-09-06T00:49:25;101975.00;;;23.00
23208;BMP180;11773;52.570;13.052;2022-09-06T00:52:04;101972.00;;;22.90
23208;BMP180;11773;52.570;13.052;2022-09-06T00:54:32;101975.00;;;22.90
23208;BMP180;11773;52.570;13.052;2022-09-06T00:57:02;101978.00;;;22.80
23208;BMP180;11773;52.570;13.052;2022-09-06T00:59:35;101977.00;;;22.80
23208;BMP180;11773;52.570;13.052;2022-09-06T01:02:06;101974.00;;;22.80
23208;BMP180;11773;52.570;13.052;2022-09-06T01:04:40;101967.00;;;22.70
23208;BMP180;11773;52.570;13.052;2022-09-06T01:07:33;101979.00;;;22.70
23208;BMP180;11773;52.570;13.052;2022-09-06T01:13:36;101973.00;;;22.60
23208;BMP180;11773;52.570;13.052;2022-09-06T01:16:24;101965.00;;;22.50
23208;BMP180;11773;52.570;13.052;2022-09-06T01:19:31;101968.00;;;22.40
23208;BMP180;11773;52.570;13.052;2022-09-06T01:22:28;101959.00;;;22.30
23208;BMP180;11773;52.570;13.052;2022-09-06T01:25:42;101960.00;;;22.20
23208;BMP180;11773;52.570;13.052;2022-09-06T01:28:32;101964.00;;;22.10
23208;BMP180;11773;52.570;13.052;2022-09-06T01:31:17;101967.00;;;22.00
23208;BMP180;11773;52.570;13.052;2022-09-06T01:37:00;101970.00;;;22.00
23208;BMP180;11773;52.570;13.052;2022-09-06T01:39:34;101968.00;;;21.90
23208;BMP180;11773;52.570;13.052;2022-09-06T01:42:25;101962.00;;;22.00
23208;BMP180;11773;52.570;13.052;2022-09-06T01:45:18;101952.00;;;21.90
23208;BMP180;11773;52.570;13.052;2022-09-06T01:48:09;101956.00;;;21.80
23208;BMP180;11773;52.570;13.052;2022-09-06T02:00:08;101962.00;;;21.60
23208;BMP180;11773;52.570;13.052;2022-09-06T02:02:57;101966.00;;;21.60
23208;BMP180;11773;52.570;13.052;2022-09-06T02:05:45;101956.00;;;21.60
23208;BMP180;11773;52.570;13.052;2022-09-06T02:08:21;101951.00;;;21.60
23208;BMP180;11773;52.570;13.052;2022-09-06T02:11:07;101965.00;;;21.60
23208;BMP180;11773;52.570;13.052;2022-09-06T02:13:49;101945.00;;;21.60
23208;BMP180;11773;52.570;13.052;2022-09-06T02:16:14;101960.00;;;21.60
23208;BMP180;11773;52.570;13.052;2022-09-06T02:18:58;101946.00;;;21.60
23208;BMP180;11773;52.570;13.052;2022-09-06T02:21:34;101951.00;;;21.50
23208;BMP180;11773;52.570;13.052;2022-09-06T02:24:08;101949.00;;;21.60
23208;BMP180;11773;52.570;13.052;2022-09-06T02:26:41;101936.00;;;21.60
23208;BMP180;11773;52.570;13.052;2022-09-06T02:29:12;101950.00;;;21.60
23208;BMP180;11773;52.570;13.052;2022-09-06T02:32:16;101943.00;;;21.60
23208;BMP180;11773;52.570;13.052;2022-09-06T02:34:40;101946.00;;;21.50
23208;BMP180;11773;52.570;13.052;2022-09-06T02:37:12;101945.00;;;21.50
23208;BMP180;11773;52.570;13.052;2022-09-06T02:39:43;101956.00;;;21.60
23208;BMP180;11773;52.570;13.052;2022-09-06T02:42:15;101948.00;;;21.50
23208;BMP180;11773;52.570;13.052;2022-09-06T02:44:44;101959.00;;;21.50
23208;BMP180;11773;52.570;13.052;2022-09-06T02:47:14;101966.00;;;21.50
23208;BMP180;11773;52.570;13.052;2022-09-06T02:49:44;101940.00;;;21.60
23208;BMP180;11773;52.570;13.052;2022-09-06T02:52:13;101937.00;;;21.50
23208;BMP180;11773;52.570;13.052;2022-09-06T02:54:43;101937.00;;;21.50
23208;BMP180;11773;52.570;13.052;2022-09-06T02:57:12;101939.00;;;21.50
23208;BMP180;11773;52.570;13.052;2022-09-06T02:59:42;101937.00;;;21.50
23208;BMP180;11773;52.570;13.052;2022-09-06T03:02:11;101944.00;;;21.50
23208;BMP180;11773;52.570;13.052;2022-09-06T03:04:41;101936.00;;;21.50
23208;BMP180;11773;52.570;13.052;2022-09-06T03:07:10;101941.00;;;21.50
23208;BMP180;11773;52.570;13.052;2022-09-06T03:09:40;101935.00;;;21.50
23208;BMP180;11773;52.570;13.052;2022-09-06T03:12:09;101935.00;;;21.50
23208;BMP180;11773;52.570;13.052;2022-09-06T03:14:39;101936.00;;;21.50
23208;BMP180;11773;52.570;13.052;2022-09-06T03:17:08;101925.00;;;21.40
23208;BMP180;11773;52.570;13.052;2022-09-06T03:19:38;101920.00;;;21.30
23208;BMP180;11773;52.570;13.052;2022-09-06T03:22:07;101924.00;;;21.30
23208;BMP180;11773;52.570;13.052;2022-09-06T03:24:37;101927.00;;;21.30
23208;BMP180;11773;52.570;13.052;2022-09-06T03:27:07;101920.00;;;21.20
23208;BMP180;11773;52.570;13.052;2022-09-06T03:29:36;101922.00;;;21.20
23208;BMP180;11773;52.570;13.052;2022-09-06T03:32:06;101925.00;;;21.20
23208;BMP180;11773;52.570;13.052;2022-09-06T03:34:35;101932.00;;;21.20
23208;BMP180;11773;52.570;13.052;2022-09-06T03:37:04;101917.00;;;21.20
23208;BMP180;11773;52.570;13.052;2022-09-06T03:39:34;101921.00;;;21.20
23208;BMP180;11773;52.570;13.052;2022-09-06T03:42:03;101934.00;;;21.10
23208;BMP180;11773;52.570;13.052;2022-09-06T03:44:33;101935.00;;;21.10
23208;BMP180;11773;52.570;13.052;2022-09-06T03:47:03;101924.00;;;21.10
23208;BMP180;11773;52.570;13.052;2022-09-06T03:49:33;101923.00;;;21.10
23208;BMP180;11773;52.570;13.052;2022-09-06T03:52:03;101923.00;;;21.10
23208;BMP180;11773;52.570;13.052;2022-09-06T03:54:32;101920.00;;;21.10
23208;BMP180;11773;52.570;13.052;2022-09-06T03:57:02;101923.00;;;21.00
23208;BMP180;11773;52.570;13.052;2022-09-06T03:59:32;101935.00;;;21.00
23208;BMP180;11773;52.570;13.052;2022-09-06T04:02:02;101925.00;;;21.00
23208;BMP180;11773;52.570;13.052;2022-09-06T04:04:31;101914.00;;;20.90
23208;BMP180;11773;52.570;13.052;2022-09-06T04:07:01;101922.00;;;20.90
23208;BMP180;11773;52.570;13.052;2022-09-06T04:09:31;101923.00;;;20.90
23208;BMP180;11773;52.570;13.052;2022-09-06T04:12:00;101922.00;;;20.90
23208;BMP180;11773;52.570;13.052;2022-09-06T04:14:30;101920.00;;;20.90
23208;BMP180;11773;52.570;13.052;2022-09-06T04:16:59;101927.00;;;20.80
23208;BMP180;11773;52.570;13.052;2022-09-06T04:19:29;101923.00;;;20.80
23208;BMP180;11773;52.570;13.052;2022-09-06T04:21:59;101919.00;;;20.80
23208;BMP180;11773;52.570;13.052;2022-09-06T04:24:28;101911.00;;;20.80
23208;BMP180;11773;52.570;13.052;2022-09-06T04:26:58;101901.00;;;20.80
23208;BMP180;11773;52.570;13.052;2022-09-06T04:29:27;101913.00;;;20.80
23208;BMP180;11773;52.570;13.052;2022-09-06T04:31:57;101899.00;;;20.80
23208;BMP180;11773;52.570;13.052;2022-09-06T04:34:26;101907.00;;;20.80
23208;BMP180;11773;52.570;13.052;2022-09-06T04:36:56;101900.00;;;20.80
23208;BMP180;11773;52.570;13.052;2022-09-06T04:39:25;101895.00;;;20.80
23208;BMP180;11773;52.570;13.052;2022-09-06T04:41:55;101902.00;;;20.80
23208;BMP180;11773;52.570;13.052;2022-09-06T04:44:24;101893.00;;;20.80
23208;BMP180;11773;52.570;13.052;2022-09-06T04:47:13;101889.00;;;20.80
23208;BMP180;11773;52.570;13.052;2022-09-06T04:49:43;101905.00;;;20.70
23208;BMP180;11773;52.570;13.052;2022-09-06T04:52:12;101898.00;;;20.70
23208;BMP180;11773;52.570;13.052;2022-09-06T04:54:42;101883.00;;;20.70
23208;BMP180;11773;52.570;13.052;2022-09-06T04:57:12;101876.00;;;20.70
23208;BMP180;11773;52.570;13.052;2022-09-06T04:59:41;101885.00;;;20.70
23208;BMP180;11773;52.570;13.052;2022-09-06T05:02:11;101879.00;;;20.70
23208;BMP180;11773;52.570;13.052;2022-09-06T05:04:40;101873.00;;;20.70
23208;BMP180;11773;52.570;13.052;2022-09-06T05:07:10;101870.00;;;20.70
23208;BMP180;11773;52.570;13.052;2022-09-06T05:09:39;101859.00;;;20.70
23208;BMP180;11773;52.570;13.052;2022-09-06T05:12:09;101879.00;;;20.70
23208;BMP180;11773;52.570;13.052;2022-09-06T05:14:38;101871.00;;;20.70
23208;BMP180;11773;52.570;13.052;2022-09-06T05:17:08;101857.00;;;20.60
23208;BMP180;11773;52.570;13.052;2022-09-06T05:19:37;101860.00;;;20.60
23208;BMP180;11773;52.570;13.052;2022-09-06T05:22:07;101875.00;;;20.60
23208;BMP180;11773;52.570;13.052;2022-09-06T05:24:36;101877.00;;;20.60
23208;BMP180;11773;52.570;13.052;2022-09-06T05:27:06;101886.00;;;20.60
23208;BMP180;11773;52.570;13.052;2022-09-06T05:29:36;101892.00;;;20.60
23208;BMP180;11773;52.570;13.052;2022-09-06T05:32:05;101892.00;;;20.60
23208;BMP180;11773;52.570;13.052;2022-09-06T05:34:35;101889.00;;;20.60
23208;BMP180;11773;52.570;13.052;2022-09-06T05:37:04;101893.00;;;20.60
23208;BMP180;11773;52.570;13.052;2022-09-06T05:39:34;101896.00;;;20.60
23208;BMP180;11773;52.570;13.052;2022-09-06T05:42:04;101885.00;;;20.60
23208;BMP180;11773;52.570;13.052;2022-09-06T05:44:36;101891.00;;;20.60
23208;BMP180;11773;52.570;13.052;2022-09-06T05:47:05;101884.00;;;20.70
23208;BMP180;11773;52.570;13.052;2022-09-06T05:49:35;101885.00;;;20.70
23208;BMP180;11773;52.570;13.052;2022-09-06T05:52:04;101886.00;;;20.70
23208;BMP180;11773;52.570;13.052;2022-09-06T05:54:34;101882.00;;;20.70
23208;BMP180;11773;52.570;13.052;2022-09-06T05:57:03;101895.00;;;20.80
23208;BMP180;11773;52.570;13.052;2022-09-06T05:59:33;101883.00;;;20.80
23208;BMP180;11773;52.570;13.052;2022-09-06T06:02:02;101885.00;;;20.90
23208;BMP180;11773;52.570;13.052;2022-09-06T06:04:34;101875.00;;;20.90
23208;BMP180;11773;52.570;13.052;2022-09-06T06:07:04;101884.00;;;20.90
23208;BMP180;11773;52.570;13.052;2022-09-06T06:14:51;101860.00;;;21.10
23208;BMP180;11773;52.570;13.052;2022-09-06T06:17:20;101865.00;;;21.10
23208;BMP180;11773;52.570;13.052;2022-09-06T06:19:50;101861.00;;;21.30
23208;BMP180;11773;52.570;13.052;2022-09-06T06:22:22;101861.00;;;21.40
23208;BMP180;11773;52.570;13.052;2022-09-06T06:24:51;101870.00;;;21.50
23208;BMP180;11773;52.570;13.052;2022-09-06T06:27:20;101870.00;;;21.60
23208;BMP180;11773;52.570;13.052;2022-09-06T06:29:50;101881.00;;;21.80
23208;BMP180;11773;52.570;13.052;2022-09-06T06:32:19;101870.00;;;21.90
23208;BMP180;11773;52.570;13.052;2022-09-06T06:34:49;101879.00;;;22.00
23208;BMP180;11773;52.570;13.052;2022-09-06T06:37:19;101888.00;;;22.20
23208;BMP180;11773;52.570;13.052;2022-09-06T06:39:48;101872.00;;;22.30
23208;BMP180;11773;52.570;13.052;2022-09-06T06:42:18;101878.00;;;22.40
23208;BMP180;11773;52.570;13.052;2022-09-06T06:44:47;101872.00;;;22.60
23208;BMP180;11773;52.570;13.052;2022-09-06T06:47:19;101877.00;;;22.80
23208;BMP180;11773;52.570;13.052;2022-09-06T06:49:49;101872.00;;;23.00
23208;BMP180;11773;52.570;13.052;2022-09-06T06:52:19;101876.00;;;23.10
23208;BMP180;11773;52.570;13.052;2022-09-06T06:54:49;101873.00;;;23.30
23208;BMP180;11773;52.570;13.052;2022-09-06T06:57:18;101865.00;;;23.40
23208;BMP180;11773;52.570;13.052;2022-09-06T06:59:48;101879.00;;;23.60
23208;BMP180;11773;52.570;13.052;2022-09-06T07:02:18;101882.00;;;23.70
23208;BMP180;11773;52.570;13.052;2022-09-06T07:04:47;101883.00;;;23.90
23208;BMP180;11773;52.570;13.052;2022-09-06T07:07:17;101870.00;;;24.00
23208;BMP180;11773;52.570;13.052;2022-09-06T07:09:50;101872.00;;;24.10
23208;BMP180;11773;52.570;13.052;2022-09-06T07:12:21;101862.00;;;24.10
23208;BMP180;11773;52.570;13.052;2022-09-06T07:14:51;101870.00;;;24.20
23208;BMP180;11773;52.570;13.052;2022-09-06T07:17:21;101871.00;;;24.20
23208;BMP180;11773;52.570;13.052;2022-09-06T07:19:50;101873.00;;;24.30
23208;BMP180;11773;52.570;13.052;2022-09-06T07:22:21;101890.00;;;24.40
23208;BMP180;11773;52.570;13.052;2022-09-06T07:24:51;101878.00;;;24.40
23208;BMP180;11773;52.570;13.052;2022-09-06T07:27:20;101877.00;;;24.50
23208;BMP180;11773;52.570;13.052;2022-09-06T07:29:52;101879.00;;;24.60
23208;BMP180;11773;52.570;13.052;2022-09-06T07:32:21;101862.00;;;24.60
23208;BMP180;11773;52.570;13.052;2022-09-06T07:34:51;101861.00;;;24.60
23208;BMP180;11773;52.570;13.052;2022-09-06T07:37:20;101857.00;;;24.70
23208;BMP180;11773;52.570;13.052;2022-09-06T07:39:50;101869.00;;;24.70
23208;BMP180;11773;52.570;13.052;2022-09-06T07:42:19;101853.00;;;24.80
23208;BMP180;11773;52.570;13.052;2022-09-06T07:44:49;101869.00;;;24.80
23208;BMP180;11773;52.570;13.052;2022-09-06T07:47:18;101849.00;;;24.90
23208;BMP180;11773;52.570;13.052;2022-09-06T07:49:50;101859.00;;;24.90
23208;BMP180;11773;52.570;13.052;2022-09-06T07:52:24;101864.00;;;25.00
23208;BMP180;11773;52.570;13.052;2022-09-06T07:54:55;101864.00;;;25.10
23208;BMP180;11773;52.570;13.052;2022-09-06T07:57:25;101863.00;;;25.10
23208;BMP180;11773;52.570;13.052;2022-09-06T07:59:54;101861.00;;;25.10
23208;BMP180;11773;52.570;13.052;2022-09-06T08:02:24;101843.00;;;25.20
23208;BMP180;11773;52.570;13.052;2022-09-06T08:04:53;101838.00;;;25.20
23208;BMP180;11773;52.570;13.052;2022-09-06T08:07:23;101854.00;;;25.20
23208;BMP180;11773;52.570;13.052;2022-09-06T08:09:58;101854.00;;;25.10
23208;BMP180;11773;52.570;13.052;2022-09-06T08:12:27;101865.00;;;25.10
23208;BMP180;11773;52.570;13.052;2022-09-06T08:14:57;101859.00;;;25.10
23208;BMP180;11773;52.570;13.052;2022-09-06T08:17:26;101872.00;;;25.00
23208;BMP180;11773;52.570;13.052;2022-09-06T08:19:56;101877.00;;;25.00
23208;BMP180;11773;52.570;13.052;2022-09-06T08:22:25;101874.00;;;24.90
23208;BMP180;11773;52.570;13.052;2022-09-06T08:24:55;101877.00;;;24.90
23208;BMP180;11773;52.570;13.052;2022-09-06T08:27:24;101877.00;;;24.90
23208;BMP180;11773;52.570;13.052;2022-09-06T08:29:57;101870.00;;;24.80
23208;BMP180;11773;52.570;13.052;2022-09-06T08:32:26;101864.00;;;24.80
23208;BMP180;11773;52.570;13.052;2022-09-06T08:34:55;101858.00;;;24.80
23208;BMP180;11773;52.570;13.052;2022-09-06T08:37:25;101853.00;;;24.80
23208;BMP180;11773;52.570;13.052;2022-09-06T08:39:55;101848.00;;;24.80
23208;BMP180;11773;52.570;13.052;2022-09-06T08:42:24;101857.00;;;24.80
23208;BMP180;11773;52.570;13.052;2022-09-06T08:44:55;101846.00;;;24.80
23208;BMP180;11773;52.570;13.052;2022-09-06T08:47:26;101845.00;;;24.80
23208;BMP180;11773;52.570;13.052;2022-09-06T08:50:02;101844.00;;;24.80
23208;BMP180;11773;52.570;13.052;2022-09-06T08:52:49;101852.00;;;24.80
23208;BMP180;11773;52.570;13.052;2022-09-06T08:55:36;101846.00;;;24.80
23208;BMP180;11773;52.570;13.052;2022-09-06T08:59:01;101848.00;;;24.80
23208;BMP180;11773;52.570;13.052;2022-09-06T09:01:32;101848.00;;;24.80
23208;BMP180;11773;52.570;13.052;2022-09-06T09:04:04;101862.00;;;24.80
23208;BMP180;11773;52.570;13.052;2022-09-06T09:06:35;101847.00;;;24.90
23208;BMP180;11773;52.570;13.052;2022-09-06T09:09:11;101848.00;;;24.90
23208;BMP180;11773;52.570;13.052;2022-09-06T09:11:46;101839.00;;;24.90
23208;BMP180;11773;52.570;13.052;2022-09-06T09:14:21;101826.00;;;24.90
23208;BMP180;11773;52.570;13.052;2022-09-06T09:16:55;101831.00;;;24.90
23208;BMP180;11773;52.570;13.052;2022-09-06T09:19:25;101846.00;;;24.90
23208;BMP180;11773;52.570;13.052;2022-09-06T09:21:55;101822.00;;;24.90
23208;BMP180;11773;52.570;13.052;2022-09-06T09:24:25;101813.00;;;24.90
23208;BMP180;11773;52.570;13.052;2022-09-06T09:27:04;101803.00;;;24.90
23208;BMP180;11773;52.570;13.052;2022-09-06T09:32:42;101813.00;;;24.80
23208;BMP180;11773;52.570;13.052;2022-09-06T09:35:30;101825.00;;;24.80
23208;BMP180;11773;52.570;13.052;2022-09-06T09:38:12;101824.00;;;24.80
23208;BMP180;11773;52.570;13.052;2022-09-06T09:40:49;101821.00;;;24.80
23208;BMP180;11773;52.570;13.052;2022-09-06T09:43:39;101820.00;;;24.90
23208;BMP180;11773;52.570;13.052;2022-09-06T09:49:12;101818.00;;;24.80
23208;BMP180;11773;52.570;13.052;2022-09-06T09:52:09;101807.00;;;24.80
23208;BMP180;11773;52.570;13.052;2022-09-06T09:54:44;101789.00;;;24.80
23208;BMP180;11773;52.570;13.052;2022-09-06T09:57:18;101803.00;;;24.80
23208;BMP180;11773;52.570;13.052;2022-09-06T09:59:54;101793.00;;;24.90
23208;BMP180;11773;52.570;13.052;2022-09-06T10:02:35;101793.00;;;24.90
23208;BMP180;11773;52.570;13.052;2022-09-06T10:07:53;101787.00;;;25.00
23208;BMP180;11773;52.570;13.052;2022-09-06T10:10:26;101792.00;;;25.10
23208;BMP180;11773;52.570;13.052;2022-09-06T10:13:24;101794.00;;;25.10
23208;BMP180;11773;52.570;13.052;2022-09-06T10:15:58;101779.00;;;25.10
23208;BMP180;11773;52.570;13.052;2022-09-06T10:18:41;101801.00;;;25.20
23208;BMP180;11773;52.570;13.052;2022-09-06T10:21:16;101787.00;;;25.20
23208;BMP180;11773;52.570;13.052;2022-09-06T10:24:30;101791.00;;;25.20
23208;BMP180;11773;52.570;13.052;2022-09-06T10:27:00;101793.00;;;25.20
23208;BMP180;11773;52.570;13.052;2022-09-06T10:29:53;101784.00;;;25.30
23208;BMP180;11773;52.570;13.052;2022-09-06T10:32:38;101769.00;;;25.30
23208;BMP180;11773;52.570;13.052;2022-09-06T10:35:19;101771.00;;;25.30
23208;BMP180;11773;52.570;13.052;2022-09-06T10:38:30;101779.00;;;25.30
23208;BMP180;11773;52.570;13.052;2022-09-06T10:41:31;101769.00;;;25.20
23208;BMP180;11773;52.570;13.052;2022-09-06T10:44:26;101760.00;;;25.30
23208;BMP180;11773;52.570;13.052;2022-09-06T10:47:01;101762.00;;;25.30
23208;BMP180;11773;52.570;13.052;2022-09-06T10:49:32;101762.00;;;25.30
23208;BMP180;11773;52.570;13.052;2022-09-06T10:52:06;101759.00;;;25.40
23208;BMP180;11773;52.570;13.052;2022-09-06T10:54:39;101762.00;;;25.40
23208;BMP180;11773;52.570;13.052;2022-09-06T10:57:19;101750.00;;;25.40
23208;BMP180;11773;52.570;13.052;2022-09-06T11:00:05;101752.00;;;25.50
23208;BMP180;11773;52.570;13.052;2022-09-06T11:03:07;101750.00;;;25.50
23208;BMP180;11773;52.570;13.052;2022-09-06T11:05:49;101760.00;;;25.50
23208;BMP180;11773;52.570;13.052;2022-09-06T11:11:08;101762.00;;;25.60
23208;BMP180;11773;52.570;13.052;2022-09-06T11:13:38;101752.00;;;25.60
23208;BMP180;11773;52.570;13.052;2022-09-06T11:16:24;101746.00;;;25.70
23208;BMP180;11773;52.570;13.052;2022-09-06T11:19:02;101749.00;;;25.70
23208;BMP180;11773;52.570;13.052;2022-09-06T11:25:21;101745.00;;;25.70
23208;BMP180;11773;52.570;13.052;2022-09-06T11:27:58;101732.00;;;25.70
23208;BMP180;11773;52.570;13.052;2022-09-06T11:30:26;101734.00;;;25.70
23208;BMP180;11773;52.570;13.052;2022-09-06T11:33:19;101730.00;;;25.70
23208;BMP180;11773;52.570;13.052;2022-09-06T11:35:45;101737.00;;;25.80
23208;BMP180;11773;52.570;13.052;2022-09-06T11:38:22;101738.00;;;25.80
23208;BMP180;11773;52.570;13.052;2022-09-06T11:40:59;101732.00;;;25.80
23208;BMP180;11773;52.570;13.052;2022-09-06T11:43:50;101732.00;;;25.80
23208;BMP180;11773;52.570;13.052;2022-09-06T11:49:30;101718.00;;;25.90
23208;BMP180;11773;52.570;13.052;2022-09-06T11:52:00;101725.00;;;25.90
23208;BMP180;11773;52.570;13.052;2022-09-06T11:54:46;101727.00;;;26.00
23208;BMP180;11773;52.570;13.052;2022-09-06T11:57:21;101733.00;;;26.00
23208;BMP180;11773;52.570;13.052;2022-09-06T12:00:03;101722.00;;;26.10
23208;BMP180;11773;52.570;13.052;2022-09-06T12:02:39;101719.00;;;26.10
23208;BMP180;11773;52.570;13.052;2022-09-06T12:05:15;101726.00;;;26.10
23208;BMP180;11773;52.570;13.052;2022-09-06T12:08:24;101724.00;;;26.10
23208;BMP180;11773;52.570;13.052;2022-09-06T12:11:02;101725.00;;;26.10
23208;BMP180;11773;52.570;13.052;2022-09-06T12:13:47;101712.00;;;26.10
23208;BMP180;11773;52.570;13.052;2022-09-06T12:16:17;101717.00;;;26.10
23208;BMP180;11773;52.570;13.052;2022-09-06T12:18:52;101707.00;;;26.20
23208;BMP180;11773;52.570;13.052;2022-09-06T12:21:41;101708.00;;;26.20
23208;BMP180;11773;52.570;13.052;2022-09-06T12:27:13;101696.00;;;26.30
23208;BMP180;11773;52.570;13.052;2022-09-06T12:30:03;101707.00;;;26.30
23208;BMP180;11773;52.570;13.052;2022-09-06T12:32:48;101698.00;;;26.30
23208;BMP180;11773;52.570;13.052;2022-09-06T12:35:27;101701.00;;;26.40
23208;BMP180;11773;52.570;13.052;2022-09-06T12:38:03;101684.00;;;26.40
23208;BMP180;11773;52.570;13.052;2022-09-06T12:40:37;101690.00;;;26.50
23208;BMP180;11773;52.570;13.052;2022-09-06T12:43:12;101684.00;;;26.50
23208;BMP180;11773;52.570;13.052;2022-09-06T12:45:50;101709.00;;;26.60
23208;BMP180;11773;52.570;13.052;2022-09-06T12:48:31;101696.00;;;26.60
23208;BMP180;11773;52.570;13.052;2022-09-06T12:51:11;101695.00;;;26.70
23208;BMP180;11773;52.570;13.052;2022-09-06T12:53:38;101682.00;;;26.80
23208;BMP180;11773;52.570;13.052;2022-09-06T12:56:10;101679.00;;;26.80
23208;BMP180;11773;52.570;13.052;2022-09-06T12:58:41;101676.00;;;26.90
23208;BMP180;11773;52.570;13.052;2022-09-06T13:01:20;101680.00;;;26.90
23208;BMP180;11773;52.570;13.052;2022-09-06T13:03:58;101673.00;;;26.90
23208;BMP180;11773;52.570;13.052;2022-09-06T13:06:32;101671.00;;;27.00
23208;BMP180;11773;52.570;13.052;2022-09-06T13:09:12;101667.00;;;27.00
23208;BMP180;11773;52.570;13.052;2022-09-06T13:11:44;101672.00;;;27.10
23208;BMP180;11773;52.570;13.052;2022-09-06T13:14:24;101671.00;;;27.10
23208;BMP180;11773;52.570;13.052;2022-09-06T13:16:54;101664.00;;;27.20
23208;BMP180;11773;52.570;13.052;2022-09-06T13:19:47;101671.00;;;27.20
23208;BMP180;11773;52.570;13.052;2022-09-06T13:22:35;101650.00;;;27.30
23208;BMP180;11773;52.570;13.052;2022-09-06T13:24:46;101650.00;;;27.30
23208;BMP180;11773;52.570;13.052;2022-09-06T13:27:34;101654.00;;;27.30
23208;BMP180;11773;52.570;13.052;2022-09-06T13:30:07;101643.00;;;27.40
23208;BMP180;11773;52.570;13.052;2022-09-06T13:32:45;101659.00;;;27.40
23208;BMP180;11773;52.570;13.052;2022-09-06T13:35:22;101641.00;;;27.40
23208;BMP180;11773;52.570;13.052;2022-09-06T13:37:48;101656.00;;;27.50
23208;BMP180;11773;52.570;13.052;2022-09-06T13:40:41;101635.00;;;27.50
23208;BMP180;11773;52.570;13.052;2022-09-06T13:43:13;101639.00;;;27.60
23208;BMP180;11773;52.570;13.052;2022-09-06T13:45:43;101633.00;;;27.60
23208;BMP180;11773;52.570;13.052;2022-09-06T13:48:14;101644.00;;;27.70
23208;BMP180;11773;52.570;13.052;2022-09-06T13:50:45;101633.00;;;27.70
23208;BMP180;11773;52.570;13.052;2022-09-06T13:53:19;101638.00;;;27.80
23208;BMP180;11773;52.570;13.052;2022-09-06T13:55:49;101639.00;;;27.80
23208;BMP180;11773;52.570;13.052;2022-09-06T13:58:19;101624.00;;;27.80
23208;BMP180;11773;52.570;13.052;2022-09-06T14:00:49;101623.00;;;27.90
23208;BMP180;11773;52.570;13.052;2022-09-06T14:03:25;101613.00;;;27.90
23208;BMP180;11773;52.570;13.052;2022-09-06T14:05:57;101635.00;;;27.90
23208;BMP180;11773;52.570;13.052;2022-09-06T14:08:29;101631.00;;;27.90
23208;BMP180;11773;52.570;13.052;2022-09-06T14:11:01;101630.00;;;27.90
23208;BMP180;11773;52.570;13.052;2022-09-06T14:13:30;101624.00;;;28.00
23208;BMP180;11773;52.570;13.052;2022-09-06T14:16:00;101632.00;;;28.00
23208;BMP180;11773;52.570;13.052;2022-09-06T14:18:31;101630.00;;;28.00
23208;BMP180;11773;52.570;13.052;2022-09-06T14:21:01;101641.00;;;28.00
23208;BMP180;11773;52.570;13.052;2022-09-06T14:23:30;101624.00;;;28.00
23208;BMP180;11773;52.570;13.052;2022-09-06T14:26:03;101631.00;;;28.00
23208;BMP180;11773;52.570;13.052;2022-09-06T14:28:33;101644.00;;;28.00
23208;BMP180;11773;52.570;13.052;2022-09-06T14:31:19;101632.00;;;28.00
23208;BMP180;11773;52.570;13.052;2022-09-06T14:33:49;101620.00;;;27.90
23208;BMP180;11773;52.570;13.052;2022-09-06T14:36:22;101625.00;;;27.90
23208;BMP180;11773;52.570;13.052;2022-09-06T14:38:52;101619.00;;;27.90
23208;BMP180;11773;52.570;13.052;2022-09-06T14:41:21;101620.00;;;27.90
23208;BMP180;11773;52.570;13.052;2022-09-06T14:43:54;101607.00;;;27.90
23208;BMP180;11773;52.570;13.052;2022-09-06T14:46:26;101620.00;;;27.80
23208;BMP180;11773;52.570;13.052;2022-09-06T14:49:04;101618.00;;;27.80
23208;BMP180;11773;52.570;13.052;2022-09-06T14:51:36;101622.00;;;27.70
23208;BMP180;11773;52.570;13.052;2022-09-06T14:54:09;101613.00;;;27.70
23208;BMP180;11773;52.570;13.052;2022-09-06T14:56:41;101608.00;;;27.70
23208;BMP180;11773;52.570;13.052;2022-09-06T14:59:12;101620.00;;;27.70
23208;BMP180;11773;52.570;13.052;2022-09-06T15:01:41;101625.00;;;27.70
23208;BMP180;11773;52.570;13.052;2022-09-06T15:04:11;101626.00;;;27.70
23208;BMP180;11773;52.570;13.052;2022-09-06T15:06:41;101627.00;;;27.60